sensor_id;sensor_type;location;lat;lon;timestamp;P1;durP1;ratioP1;P2;durP2;ratioP2
43523;SDS011;29120;52.006;6.020;2022-07-29T00:01:30;3.05;;;0.20;;
43523;SDS011;29120;52.006;6.020;2022-07-29T00:03:55;1.63;;;0.17;;
43523;SDS011;29120;52.006;6.020;2022-07-29T00:06:21;0.65;;;0.10;;
43523;SDS011;29120;52.006;6.020;2022-07-29T00:08:47;0.82;;;0.10;;
43523;SDS011;29120;52.006;6.020;2022-07-29T00:11:12;1.95;;;0.75;;
43523;SDS011;29120;52.006;6.020;2022-07-29T00:13:38;0.40;;;0.10;;
43523;SDS011;29120;52.006;6.020;2022-07-29T00:16:03;2.05;;;0.20;;
43523;SDS011;29120;52.006;6.020;2022-07-29T00:18:29;1.83;;;0.20;;
43523;SDS011;29120;52.006;6.020;2022-07-29T00:20:55;1.02;;;0.10;;
43523;SDS011;29120;52.006;6.020;2022-07-29T00:23:20;0.82;;;0.20;;
43523;SDS011;29120;52.006;6.020;2022-07-29T00:25:46;0.50;;;0.20;;
43523;SDS011;29120;52.006;6.020;2022-07-29T00:28:11;0.63;;;0.20;;
43523;SDS011;29120;52.006;6.020;2022-07-29T00:30:37;1.58;;;0.17;;
43523;SDS011;29120;52.006;6.020;2022-07-29T00:33:02;0.70;;;0.20;;
43523;SDS011;29120;52.006;6.020;2022-07-29T00:35:28;1.20;;;0.20;;
43523;SDS011;29120;52.006;6.020;2022-07-29T00:38:09;0.17;;;0.10;;
43523;SDS011;29120;52.006;6.020;2022-07-29T00:40:35;0.63;;;0.20;;
43523;SDS011;29120;52.006;6.020;2022-07-29T00:43:00;1.00;;;0.20;;
43523;SDS011;29120;52.006;6.020;2022-07-29T00:45:26;1.48;;;0.20;;
43523;SDS011;29120;52.006;6.020;2022-07-29T00:47:52;2.28;;;0.20;;
43523;SDS011;29120;52.006;6.020;2022-07-29T00:50:18;0.73;;;0.20;;
43523;SDS011;29120;52.006;6.020;2022-07-29T00:52:43;0.85;;;0.20;;
43523;SDS011;29120;52.006;6.020;2022-07-29T00:55:11;1.38;;;0.20;;
43523;SDS011;29120;52.006;6.020;2022-07-29T00:57:38;1.95;;;0.20;;
43523;SDS011;29120;52.006;6.020;2022-07-29T01:00:06;1.48;;;0.20;;
43523;SDS011;29120;52.006;6.020;2022-07-29T01:02:34;2.35;;;0.20;;
43523;SDS011;29120;52.006;6.020;2022-07-29T01:05:00;1.00;;;0.20;;
43523;SDS011;29120;52.006;6.020;2022-07-29T01:07:26;1.50;;;0.20;;
43523;SDS011;29120;52.006;6.020;2022-07-29T01:09:53;2.03;;;0.30;;
43523;SDS011;29120;52.006;6.020;2022-07-29T01:12:24;2.45;;;0.30;;
43523;SDS011;29120;52.006;6.020;2022-07-29T01:14:51;0.93;;;0.40;;
43523;SDS011;29120;52.006;6.020;2022-07-29T01:20:00;1.50;;;0.43;;
43523;SDS011;29120;52.006;6.020;2022-07-29T01:22:52;1.50;;;0.55;;
43523;SDS011;29120;52.006;6.020;2022-07-29T01:34:23;0.88;;;0.30;;
43523;SDS011;29120;52.006;6.020;2022-07-29T01:37:03;1.02;;;0.38;;
43523;SDS011;29120;52.006;6.020;2022-07-29T01:39:45;1.83;;;0.35;;
43523;SDS011;29120;52.006;6.020;2022-07-29T01:42:30;2.92;;;0.30;;
43523;SDS011;29120;52.006;6.020;2022-07-29T01:45:02;1.83;;;0.40;;
43523;SDS011;29120;52.006;6.020;2022-07-29T01:47:41;1.83;;;0.30;;
43523;SDS011;29120;52.006;6.020;2022-07-29T01:50:34;1.00;;;0.22;;
43523;SDS011;29120;52.006;6.020;2022-07-29T01:53:21;1.65;;;0.25;;
43523;SDS011;29120;52.006;6.020;2022-07-29T01:55:56;0.28;;;0.20;;
43523;SDS011;29120;52.006;6.020;2022-07-29T01:58:24;1.13;;;0.28;;
43523;SDS011;29120;52.006;6.020;2022-07-29T02:00:51;1.15;;;0.30;;
43523;SDS011;29120;52.006;6.020;2022-07-29T02:03:18;1.08;;;0.20;;
43523;SDS011;29120;52.006;6.020;2022-07-29T02:05:46;1.05;;;0.30;;
43523;SDS011;29120;52.006;6.020;2022-07-29T02:08:13;0.98;;;0.28;;
43523;SDS011;29120;52.006;6.020;2022-07-29T02:10:41;2.13;;;0.30;;
43523;SDS011;29120;52.006;6.020;2022-07-29T02:13:09;1.35;;;0.30;;
43523;SDS011;29120;52.006;6.020;2022-07-29T02:15:36;1.95;;;0.30;;
43523;SDS011;29120;52.006;6.020;2022-07-29T02:18:07;1.80;;;0.20;;
43523;SDS011;29120;52.006;6.020;2022-07-29T02:20:35;1.42;;;0.30;;
43523;SDS011;29120;52.006;6.020;2022-07-29T02:23:02;1.00;;;0.28;;
43523;SDS011;29120;52.006;6.020;2022-07-29T02:25:29;0.75;;;0.20;;
43523;SDS011;29120;52.006;6.020;2022-07-29T02:27:55;1.85;;;0.20;;
43523;SDS011;29120;52.006;6.020;2022-07-29T02:30:21;1.88;;;0.40;;
43523;SDS011;29120;52.006;6.020;2022-07-29T02:32:48;1.35;;;0.20;;
43523;SDS011;29120;52.006;6.020;2022-07-29T02:35:16;1.20;;;0.30;;
43523;SDS011;29120;52.006;6.020;2022-07-29T02:37:43;1.42;;;0.22;;
43523;SDS011;29120;52.006;6.020;2022-07-29T02:40:11;0.95;;;0.30;;
43523;SDS011;29120;52.006;6.020;2022-07-29T02:42:38;1.48;;;0.30;;
43523;SDS011;29120;52.006;6.020;2022-07-29T02:45:07;1.15;;;0.22;;
43523;SDS011;29120;52.006;6.020;2022-07-29T02:47:34;2.53;;;0.30;;
43523;SDS011;29120;52.006;6.020;2022-07-29T02:55:15;1.23;;;0.30;;
43523;SDS011;29120;52.006;6.020;2022-07-29T02:57:49;2.50;;;1.30;;
43523;SDS011;29120;52.006;6.020;2022-07-29T03:00:25;7.95;;;0.65;;
43523;SDS011;29120;52.006;6.020;2022-07-29T03:02:53;1.35;;;0.30;;
43523;SDS011;29120;52.006;6.020;2022-07-29T03:05:22;1.33;;;0.40;;
43523;SDS011;29120;52.006;6.020;2022-07-29T03:07:49;1.25;;;0.30;;
43523;SDS011;29120;52.006;6.020;2022-07-29T03:10:22;2.63;;;0.40;;
43523;SDS011;29120;52.006;6.020;2022-07-29T03:12:49;1.20;;;0.40;;
43523;SDS011;29120;52.006;6.020;2022-07-29T03:15:16;0.80;;;0.30;;
43523;SDS011;29120;52.006;6.020;2022-07-29T03:17:42;1.15;;;0.40;;
43523;SDS011;29120;52.006;6.020;2022-07-29T03:20:09;0.85;;;0.30;;
43523;SDS011;29120;52.006;6.020;2022-07-29T03:22:39;0.85;;;0.25;;
43523;SDS011;29120;52.006;6.020;2022-07-29T03:25:12;2.05;;;0.30;;
43523;SDS011;29120;52.006;6.020;2022-07-29T03:27:41;2.17;;;0.38;;
43523;SDS011;29120;52.006;6.020;2022-07-29T03:30:08;1.00;;;0.40;;
43523;SDS011;29120;52.006;6.020;2022-07-29T03:32:35;0.93;;;0.40;;
43523;SDS011;29120;52.006;6.020;2022-07-29T03:35:01;0.98;;;0.40;;
43523;SDS011;29120;52.006;6.020;2022-07-29T03:37:27;0.88;;;0.55;;
43523;SDS011;29120;52.006;6.020;2022-07-29T03:39:53;2.03;;;0.60;;
43523;SDS011;29120;52.006;6.020;2022-07-29T03:42:21;1.60;;;0.40;;
43523;SDS011;29120;52.006;6.020;2022-07-29T03:44:49;0.88;;;0.38;;
43523;SDS011;29120;52.006;6.020;2022-07-29T03:47:17;4.05;;;0.50;;
43523;SDS011;29120;52.006;6.020;2022-07-29T03:49:48;1.50;;;0.40;;
43523;SDS011;29120;52.006;6.020;2022-07-29T03:52:15;1.23;;;0.50;;
43523;SDS011;29120;52.006;6.020;2022-07-29T03:54:41;1.20;;;0.50;;
43523;SDS011;29120;52.006;6.020;2022-07-29T03:57:07;1.00;;;0.32;;
43523;SDS011;29120;52.006;6.020;2022-07-29T03:59:36;1.65;;;0.50;;
43523;SDS011;29120;52.006;6.020;2022-07-29T04:02:03;1.98;;;0.65;;
43523;SDS011;29120;52.006;6.020;2022-07-29T04:04:32;1.88;;;0.50;;
43523;SDS011;29120;52.006;6.020;2022-07-29T04:06:59;0.83;;;0.50;;
43523;SDS011;29120;52.006;6.020;2022-07-29T04:09:25;1.37;;;0.40;;
43523;SDS011;29120;52.006;6.020;2022-07-29T04:11:50;2.10;;;0.60;;
43523;SDS011;29120;52.006;6.020;2022-07-29T04:14:16;1.00;;;0.40;;
43523;SDS011;29120;52.006;6.020;2022-07-29T04:16:42;1.45;;;0.40;;
43523;SDS011;29120;52.006;6.020;2022-07-29T04:19:07;3.10;;;0.50;;
43523;SDS011;29120;52.006;6.020;2022-07-29T04:21:39;1.13;;;0.50;;
43523;SDS011;29120;52.006;6.020;2022-07-29T04:24:06;1.98;;;0.40;;
43523;SDS011;29120;52.006;6.020;2022-07-29T04:26:32;1.60;;;0.47;;
43523;SDS011;29120;52.006;6.020;2022-07-29T04:28:59;1.80;;;0.40;;
43523;SDS011;29120;52.006;6.020;2022-07-29T04:31:24;1.40;;;0.50;;
43523;SDS011;29120;52.006;6.020;2022-07-29T04:33:50;1.20;;;0.47;;
43523;SDS011;29120;52.006;6.020;2022-07-29T04:36:15;2.92;;;0.60;;
43523;SDS011;29120;52.006;6.020;2022-07-29T04:38:41;3.05;;;0.50;;
43523;SDS011;29120;52.006;6.020;2022-07-29T04:41:07;2.30;;;0.53;;
43523;SDS011;29120;52.006;6.020;2022-07-29T04:43:33;1.75;;;0.50;;
43523;SDS011;29120;52.006;6.020;2022-07-29T04:46:02;0.85;;;0.50;;
43523;SDS011;29120;52.006;6.020;2022-07-29T04:48:28;2.88;;;0.50;;
43523;SDS011;29120;52.006;6.020;2022-07-29T04:50:55;2.07;;;0.33;;
43523;SDS011;29120;52.006;6.020;2022-07-29T04:53:21;1.85;;;0.50;;
43523;SDS011;29120;52.006;6.020;2022-07-29T04:55:47;0.87;;;0.40;;
43523;SDS011;29120;52.006;6.020;2022-07-29T04:58:12;1.17;;;0.40;;
43523;SDS011;29120;52.006;6.020;2022-07-29T05:00:38;1.58;;;0.50;;
43523;SDS011;29120;52.006;6.020;2022-07-29T05:03:04;2.83;;;0.50;;
43523;SDS011;29120;52.006;6.020;2022-07-29T05:05:30;1.75;;;0.50;;
43523;SDS011;29120;52.006;6.020;2022-07-29T05:07:55;0.73;;;0.40;;
43523;SDS011;29120;52.006;6.020;2022-07-29T05:10:21;3.45;;;0.45;;
43523;SDS011;29120;52.006;6.020;2022-07-29T05:12:47;1.03;;;0.53;;
43523;SDS011;29120;52.006;6.020;2022-07-29T05:15:13;3.63;;;0.77;;
43523;SDS011;29120;52.006;6.020;2022-07-29T05:17:39;1.20;;;0.50;;
43523;SDS011;29120;52.006;6.020;2022-07-29T05:20:05;2.37;;;0.60;;
43523;SDS011;29120;52.006;6.020;2022-07-29T05:22:31;4.23;;;0.70;;
43523;SDS011;29120;52.006;6.020;2022-07-29T05:24:57;1.23;;;0.40;;
43523;SDS011;29120;52.006;6.020;2022-07-29T05:27:22;1.67;;;0.50;;
43523;SDS011;29120;52.006;6.020;2022-07-29T05:29:50;2.67;;;0.40;;
43523;SDS011;29120;52.006;6.020;2022-07-29T05:32:16;1.60;;;0.63;;
43523;SDS011;29120;52.006;6.020;2022-07-29T05:34:42;1.47;;;0.50;;
43523;SDS011;29120;52.006;6.020;2022-07-29T05:37:08;1.17;;;0.50;;
43523;SDS011;29120;52.006;6.020;2022-07-29T05:39:33;1.98;;;0.50;;
43523;SDS011;29120;52.006;6.020;2022-07-29T05:41:59;0.70;;;0.40;;
43523;SDS011;29120;52.006;6.020;2022-07-29T05:44:24;2.13;;;0.43;;
43523;SDS011;29120;52.006;6.020;2022-07-29T05:46:50;2.13;;;0.50;;
43523;SDS011;29120;52.006;6.020;2022-07-29T05:49:15;2.50;;;0.40;;
43523;SDS011;29120;52.006;6.020;2022-07-29T05:51:41;2.10;;;0.50;;
43523;SDS011;29120;52.006;6.020;2022-07-29T05:54:06;1.90;;;0.60;;
43523;SDS011;29120;52.006;6.020;2022-07-29T05:56:32;1.37;;;0.40;;
43523;SDS011;29120;52.006;6.020;2022-07-29T05:58:57;0.90;;;0.50;;
43523;SDS011;29120;52.006;6.020;2022-07-29T06:01:23;0.80;;;0.40;;
43523;SDS011;29120;52.006;6.020;2022-07-29T06:03:49;1.52;;;0.50;;
43523;SDS011;29120;52.006;6.020;2022-07-29T06:06:14;1.42;;;0.55;;
43523;SDS011;29120;52.006;6.020;2022-07-29T06:08:40;1.97;;;0.50;;
43523;SDS011;29120;52.006;6.020;2022-07-29T06:11:06;1.73;;;0.50;;
43523;SDS011;29120;52.006;6.020;2022-07-29T06:13:33;1.83;;;0.40;;
43523;SDS011;29120;52.006;6.020;2022-07-29T06:15:59;1.10;;;0.50;;
43523;SDS011;29120;52.006;6.020;2022-07-29T06:18:24;1.25;;;0.40;;
43523;SDS011;29120;52.006;6.020;2022-07-29T06:20:50;3.17;;;0.40;;
43523;SDS011;29120;52.006;6.020;2022-07-29T06:23:17;3.78;;;0.40;;
43523;SDS011;29120;52.006;6.020;2022-07-29T06:25:43;1.92;;;0.50;;
43523;SDS011;29120;52.006;6.020;2022-07-29T06:28:08;4.60;;;0.85;;
43523;SDS011;29120;52.006;6.020;2022-07-29T06:30:34;1.52;;;0.50;;
43523;SDS011;29120;52.006;6.020;2022-07-29T06:32:59;2.15;;;0.40;;
43523;SDS011;29120;52.006;6.020;2022-07-29T06:35:26;1.38;;;0.50;;
43523;SDS011;29120;52.006;6.020;2022-07-29T06:37:52;2.58;;;0.47;;
43523;SDS011;29120;52.006;6.020;2022-07-29T06:40:18;1.80;;;0.50;;
43523;SDS011;29120;52.006;6.020;2022-07-29T06:43:02;3.88;;;0.70;;
43523;SDS011;29120;52.006;6.020;2022-07-29T06:45:28;3.80;;;0.47;;
43523;SDS011;29120;52.006;6.020;2022-07-29T06:47:53;1.00;;;0.50;;
43523;SDS011;29120;52.006;6.020;2022-07-29T06:50:19;0.73;;;0.40;;
43523;SDS011;29120;52.006;6.020;2022-07-29T06:52:45;1.88;;;0.55;;
43523;SDS011;29120;52.006;6.020;2022-07-29T06:55:10;1.45;;;0.40;;
43523;SDS011;29120;52.006;6.020;2022-07-29T06:57:36;4.72;;;0.60;;
43523;SDS011;29120;52.006;6.020;2022-07-29T07:00:02;5.70;;;0.60;;
43523;SDS011;29120;52.006;6.020;2022-07-29T07:02:29;2.08;;;0.40;;
43523;SDS011;29120;52.006;6.020;2022-07-29T07:04:55;0.70;;;0.40;;
43523;SDS011;29120;52.006;6.020;2022-07-29T07:07:21;1.52;;;0.40;;
43523;SDS011;29120;52.006;6.020;2022-07-29T07:09:46;1.52;;;0.43;;
43523;SDS011;29120;52.006;6.020;2022-07-29T07:12:12;1.50;;;0.35;;
43523;SDS011;29120;52.006;6.020;2022-07-29T07:14:37;0.70;;;0.40;;
43523;SDS011;29120;52.006;6.020;2022-07-29T07:17:04;2.92;;;0.65;;
43523;SDS011;29120;52.006;6.020;2022-07-29T07:19:31;0.82;;;0.40;;
43523;SDS011;29120;52.006;6.020;2022-07-29T07:21:57;0.98;;;0.30;;
43523;SDS011;29120;52.006;6.020;2022-07-29T07:24:22;1.30;;;0.60;;
43523;SDS011;29120;52.006;6.020;2022-07-29T07:26:48;2.85;;;0.50;;
43523;SDS011;29120;52.006;6.020;2022-07-29T07:29:13;3.00;;;0.50;;
43523;SDS011;29120;52.006;6.020;2022-07-29T07:31:39;1.25;;;0.43;;
43523;SDS011;29120;52.006;6.020;2022-07-29T07:34:05;2.65;;;0.35;;
43523;SDS011;29120;52.006;6.020;2022-07-29T07:36:30;2.95;;;0.50;;
43523;SDS011;29120;52.006;6.020;2022-07-29T07:38:56;2.53;;;0.95;;
43523;SDS011;29120;52.006;6.020;2022-07-29T07:41:22;1.25;;;0.50;;
43523;SDS011;29120;52.006;6.020;2022-07-29T07:43:47;2.53;;;0.40;;
43523;SDS011;29120;52.006;6.020;2022-07-29T07:46:13;1.67;;;0.47;;
43523;SDS011;29120;52.006;6.020;2022-07-29T07:48:39;4.95;;;0.50;;
43523;SDS011;29120;52.006;6.020;2022-07-29T07:51:05;2.05;;;0.47;;
43523;SDS011;29120;52.006;6.020;2022-07-29T07:53:30;1.40;;;0.40;;
43523;SDS011;29120;52.006;6.020;2022-07-29T07:55:56;3.22;;;0.50;;
43523;SDS011;29120;52.006;6.020;2022-07-29T07:58:21;3.50;;;0.60;;
43523;SDS011;29120;52.006;6.020;2022-07-29T08:00:47;2.88;;;0.50;;
43523;SDS011;29120;52.006;6.020;2022-07-29T08:03:12;1.30;;;0.60;;
43523;SDS011;29120;52.006;6.020;2022-07-29T08:05:40;1.38;;;0.45;;
43523;SDS011;29120;52.006;6.020;2022-07-29T08:08:05;1.48;;;0.50;;
43523;SDS011;29120;52.006;6.020;2022-07-29T08:10:31;2.10;;;0.60;;
43523;SDS011;29120;52.006;6.020;2022-07-29T08:13:16;4.25;;;0.40;;
43523;SDS011;29120;52.006;6.020;2022-07-29T08:15:41;1.58;;;0.60;;
43523;SDS011;29120;52.006;6.020;2022-07-29T08:18:09;1.10;;;0.38;;
43523;SDS011;29120;52.006;6.020;2022-07-29T08:20:35;1.98;;;0.50;;
43523;SDS011;29120;52.006;6.020;2022-07-29T08:23:03;1.55;;;0.47;;
43523;SDS011;29120;52.006;6.020;2022-07-29T08:25:30;1.13;;;0.50;;
43523;SDS011;29120;52.006;6.020;2022-07-29T08:27:57;1.30;;;0.50;;
43523;SDS011;29120;52.006;6.020;2022-07-29T08:30:23;2.08;;;0.50;;
43523;SDS011;29120;52.006;6.020;2022-07-29T08:32:48;0.70;;;0.40;;
43523;SDS011;29120;52.006;6.020;2022-07-29T08:35:17;1.63;;;0.40;;
43523;SDS011;29120;52.006;6.020;2022-07-29T08:37:44;3.33;;;0.50;;
43523;SDS011;29120;52.006;6.020;2022-07-29T08:40:10;2.80;;;0.70;;
43523;SDS011;29120;52.006;6.020;2022-07-29T08:42:36;3.17;;;0.45;;
43523;SDS011;29120;52.006;6.020;2022-07-29T08:45:02;2.45;;;0.50;;
43523;SDS011;29120;52.006;6.020;2022-07-29T08:47:28;2.10;;;0.50;;
43523;SDS011;29120;52.006;6.020;2022-07-29T08:49:54;0.93;;;0.50;;
43523;SDS011;29120;52.006;6.020;2022-07-29T08:52:20;1.55;;;0.47;;
43523;SDS011;29120;52.006;6.020;2022-07-29T08:54:46;1.05;;;0.40;;
43523;SDS011;29120;52.006;6.020;2022-07-29T08:57:13;1.70;;;0.50;;
43523;SDS011;29120;52.006;6.020;2022-07-29T08:59:40;0.98;;;0.40;;
43523;SDS011;29120;52.006;6.020;2022-07-29T09:02:12;2.90;;;0.50;;
43523;SDS011;29120;52.006;6.020;2022-07-29T09:04:44;1.40;;;0.47;;
43523;SDS011;29120;52.006;6.020;2022-07-29T09:07:10;1.85;;;0.45;;
43523;SDS011;29120;52.006;6.020;2022-07-29T09:09:40;0.82;;;0.50;;
43523;SDS011;29120;52.006;6.020;2022-07-29T09:12:06;1.67;;;0.60;;
43523;SDS011;29120;52.006;6.020;2022-07-29T09:14:33;1.65;;;0.70;;
43523;SDS011;29120;52.006;6.020;2022-07-29T09:16:58;2.28;;;0.60;;
43523;SDS011;29120;52.006;6.020;2022-07-29T09:19:25;1.38;;;0.50;;
43523;SDS011;29120;52.006;6.020;2022-07-29T09:21:53;1.17;;;0.50;;
43523;SDS011;29120;52.006;6.020;2022-07-29T09:24:22;4.05;;;0.60;;
43523;SDS011;29120;52.006;6.020;2022-07-29T09:26:48;3.00;;;0.80;;
43523;SDS011;29120;52.006;6.020;2022-07-29T09:29:14;1.23;;;0.60;;
43523;SDS011;29120;52.006;6.020;2022-07-29T09:31:42;2.50;;;0.60;;
43523;SDS011;29120;52.006;6.020;2022-07-29T09:34:10;1.35;;;0.55;;
43523;SDS011;29120;52.006;6.020;2022-07-29T09:36:40;3.55;;;1.08;;
43523;SDS011;29120;52.006;6.020;2022-07-29T09:39:07;1.23;;;0.47;;
43523;SDS011;29120;52.006;6.020;2022-07-29T09:41:46;3.42;;;0.65;;
43523;SDS011;29120;52.006;6.020;2022-07-29T09:44:19;0.82;;;0.57;;
43523;SDS011;29120;52.006;6.020;2022-07-29T09:46:53;0.95;;;0.50;;
43523;SDS011;29120;52.006;6.020;2022-07-29T09:49:31;2.22;;;0.60;;
43523;SDS011;29120;52.006;6.020;2022-07-29T09:52:03;2.45;;;0.80;;
43523;SDS011;29120;52.006;6.020;2022-07-29T09:54:30;1.57;;;0.60;;
43523;SDS011;29120;52.006;6.020;2022-07-29T09:57:01;1.60;;;0.63;;
43523;SDS011;29120;52.006;6.020;2022-07-29T09:59:32;2.28;;;0.70;;
43523;SDS011;29120;52.006;6.020;2022-07-29T10:01:58;9.02;;;0.85;;
43523;SDS011;29120;52.006;6.020;2022-07-29T10:04:24;2.55;;;0.70;;
43523;SDS011;29120;52.006;6.020;2022-07-29T10:07:02;0.95;;;0.50;;
43523;SDS011;29120;52.006;6.020;2022-07-29T10:09:30;1.33;;;0.60;;
43523;SDS011;29120;52.006;6.020;2022-07-29T10:12:06;6.10;;;0.70;;
43523;SDS011;29120;52.006;6.020;2022-07-29T10:14:32;2.80;;;0.60;;
43523;SDS011;29120;52.006;6.020;2022-07-29T10:17:01;4.25;;;0.60;;
43523;SDS011;29120;52.006;6.020;2022-07-29T10:19:29;2.33;;;0.47;;
43523;SDS011;29120;52.006;6.020;2022-07-29T10:21:59;1.65;;;0.43;;
43523;SDS011;29120;52.006;6.020;2022-07-29T10:24:27;1.75;;;0.50;;
43523;SDS011;29120;52.006;6.020;2022-07-29T10:26:58;4.35;;;0.50;;
43523;SDS011;29120;52.006;6.020;2022-07-29T10:29:25;1.02;;;0.50;;
43523;SDS011;29120;52.006;6.020;2022-07-29T10:31:57;3.88;;;0.43;;
43523;SDS011;29120;52.006;6.020;2022-07-29T10:34:57;1.73;;;0.50;;
43523;SDS011;29120;52.006;6.020;2022-07-29T10:40:17;1.15;;;0.50;;
43523;SDS011;29120;52.006;6.020;2022-07-29T10:43:14;1.88;;;0.40;;
43523;SDS011;29120;52.006;6.020;2022-07-29T10:45:45;5.35;;;0.50;;
43523;SDS011;29120;52.006;6.020;2022-07-29T10:48:12;1.27;;;0.32;;
43523;SDS011;29120;52.006;6.020;2022-07-29T10:50:54;0.82;;;0.40;;
43523;SDS011;29120;52.006;6.020;2022-07-29T10:53:49;2.08;;;0.40;;
43523;SDS011;29120;52.006;6.020;2022-07-29T10:56:25;1.80;;;0.40;;
43523;SDS011;29120;52.006;6.020;2022-07-29T10:59:38;1.00;;;0.40;;
43523;SDS011;29120;52.006;6.020;2022-07-29T11:01:44;1.33;;;0.40;;
43523;SDS011;29120;52.006;6.020;2022-07-29T11:04:14;2.35;;;0.32;;
43523;SDS011;29120;52.006;6.020;2022-07-29T11:09:32;2.88;;;0.47;;
43523;SDS011;29120;52.006;6.020;2022-07-29T11:11:58;4.53;;;0.40;;
43523;SDS011;29120;52.006;6.020;2022-07-29T11:17:25;1.00;;;0.30;;
43523;SDS011;29120;52.006;6.020;2022-07-29T11:19:51;2.30;;;0.40;;
43523;SDS011;29120;52.006;6.020;2022-07-29T11:22:35;2.70;;;0.40;;
43523;SDS011;29120;52.006;6.020;2022-07-29T11:25:15;1.80;;;0.40;;
43523;SDS011;29120;52.006;6.020;2022-07-29T11:27:41;2.70;;;0.40;;
43523;SDS011;29120;52.006;6.020;2022-07-29T11:30:07;3.83;;;0.40;;
43523;SDS011;29120;52.006;6.020;2022-07-29T11:32:37;2.20;;;0.30;;
43523;SDS011;29120;52.006;6.020;2022-07-29T11:35:12;1.45;;;0.32;;
43523;SDS011;29120;52.006;6.020;2022-07-29T11:37:46;1.75;;;0.30;;
43523;SDS011;29120;52.006;6.020;2022-07-29T11:40:32;1.98;;;0.40;;
43523;SDS011;29120;52.006;6.020;2022-07-29T11:42:58;5.22;;;0.30;;
43523;SDS011;29120;52.006;6.020;2022-07-29T11:45:23;2.00;;;0.35;;
43523;SDS011;29120;52.006;6.020;2022-07-29T11:47:54;0.75;;;0.20;;
43523;SDS011;29120;52.006;6.020;2022-07-29T11:50:28;1.80;;;0.30;;
43523;SDS011;29120;52.006;6.020;2022-07-29T11:52:53;3.45;;;0.52;;
43523;SDS011;29120;52.006;6.020;2022-07-29T11:55:20;1.88;;;0.30;;
43523;SDS011;29120;52.006;6.020;2022-07-29T11:57:51;2.10;;;0.20;;
43523;SDS011;29120;52.006;6.020;2022-07-29T12:00:22;1.15;;;0.30;;
43523;SDS011;29120;52.006;6.020;2022-07-29T12:02:54;1.63;;;0.22;;
43523;SDS011;29120;52.006;6.020;2022-07-29T12:05:20;1.38;;;0.38;;
43523;SDS011;29120;52.006;6.020;2022-07-29T12:07:46;1.55;;;0.30;;
43523;SDS011;29120;52.006;6.020;2022-07-29T12:10:12;3.15;;;0.30;;
43523;SDS011;29120;52.006;6.020;2022-07-29T12:12:38;1.15;;;0.30;;
43523;SDS011;29120;52.006;6.020;2022-07-29T12:15:25;5.22;;;0.35;;
43523;SDS011;29120;52.006;6.020;2022-07-29T12:17:51;0.90;;;0.30;;
43523;SDS011;29120;52.006;6.020;2022-07-29T12:20:23;3.00;;;0.30;;
43523;SDS011;29120;52.006;6.020;2022-07-29T12:22:49;2.50;;;0.28;;
43523;SDS011;29120;52.006;6.020;2022-07-29T12:25:15;1.63;;;0.30;;
43523;SDS011;29120;52.006;6.020;2022-07-29T12:27:42;2.45;;;0.22;;
43523;SDS011;29120;52.006;6.020;2022-07-29T12:30:12;3.15;;;0.30;;
43523;SDS011;29120;52.006;6.020;2022-07-29T12:32:41;2.03;;;0.30;;
43523;SDS011;29120;52.006;6.020;2022-07-29T12:35:14;7.28;;;0.30;;
43523;SDS011;29120;52.006;6.020;2022-07-29T12:37:41;4.15;;;0.35;;
43523;SDS011;29120;52.006;6.020;2022-07-29T12:40:08;1.23;;;0.20;;
43523;SDS011;29120;52.006;6.020;2022-07-29T12:42:36;0.82;;;0.20;;
43523;SDS011;29120;52.006;6.020;2022-07-29T12:45:02;1.00;;;0.20;;
43523;SDS011;29120;52.006;6.020;2022-07-29T12:47:28;1.17;;;0.20;;
43523;SDS011;29120;52.006;6.020;2022-07-29T12:50:10;6.85;;;0.22;;
43523;SDS011;29120;52.006;6.020;2022-07-29T12:52:40;1.80;;;0.20;;
43523;SDS011;29120;52.006;6.020;2022-07-29T12:55:06;1.25;;;0.30;;
43523;SDS011;29120;52.006;6.020;2022-07-29T12:57:32;1.02;;;0.30;;
43523;SDS011;29120;52.006;6.020;2022-07-29T13:00:11;2.90;;;0.30;;
43523;SDS011;29120;52.006;6.020;2022-07-29T13:02:39;1.00;;;0.20;;
43523;SDS011;29120;52.006;6.020;2022-07-29T13:05:06;2.60;;;0.20;;
43523;SDS011;29120;52.006;6.020;2022-07-29T13:07:33;0.85;;;0.20;;
43523;SDS011;29120;52.006;6.020;2022-07-29T13:10:15;2.38;;;0.20;;
43523;SDS011;29120;52.006;6.020;2022-07-29T13:15:26;1.08;;;0.20;;
43523;SDS011;29120;52.006;6.020;2022-07-29T13:17:52;1.10;;;0.17;;
43523;SDS011;29120;52.006;6.020;2022-07-29T13:20:17;2.67;;;0.20;;
43523;SDS011;29120;52.006;6.020;2022-07-29T13:22:47;1.00;;;0.30;;
43523;SDS011;29120;52.006;6.020;2022-07-29T13:25:13;1.20;;;0.20;;
43523;SDS011;29120;52.006;6.020;2022-07-29T13:27:39;1.35;;;0.15;;
43523;SDS011;29120;52.006;6.020;2022-07-29T13:30:08;3.58;;;0.30;;
43523;SDS011;29120;52.006;6.020;2022-07-29T13:32:34;1.42;;;0.40;;
43523;SDS011;29120;52.006;6.020;2022-07-29T13:35:02;1.45;;;0.20;;
43523;SDS011;29120;52.006;6.020;2022-07-29T13:37:31;1.05;;;0.20;;
43523;SDS011;29120;52.006;6.020;2022-07-29T13:39:59;1.10;;;0.55;;
43523;SDS011;29120;52.006;6.020;2022-07-29T13:42:25;0.88;;;0.20;;
43523;SDS011;29120;52.006;6.020;2022-07-29T13:44:51;0.40;;;0.10;;
43523;SDS011;29120;52.006;6.020;2022-07-29T13:47:17;0.50;;;0.10;;
43523;SDS011;29120;52.006;6.020;2022-07-29T13:49:44;0.73;;;0.20;;
43523;SDS011;29120;52.006;6.020;2022-07-29T13:52:10;2.85;;;0.20;;
43523;SDS011;29120;52.006;6.020;2022-07-29T13:54:35;0.50;;;0.10;;
43523;SDS011;29120;52.006;6.020;2022-07-29T13:57:02;3.35;;;0.20;;
43523;SDS011;29120;52.006;6.020;2022-07-29T13:59:28;1.48;;;0.32;;
43523;SDS011;29120;52.006;6.020;2022-07-29T14:01:54;1.30;;;0.20;;
43523;SDS011;29120;52.006;6.020;2022-07-29T14:04:20;4.40;;;0.20;;
43523;SDS011;29120;52.006;6.020;2022-07-29T14:06:46;0.82;;;0.20;;
43523;SDS011;29120;52.006;6.020;2022-07-29T14:09:12;0.60;;;0.20;;
43523;SDS011;29120;52.006;6.020;2022-07-29T14:11:37;0.80;;;0.20;;
43523;SDS011;29120;52.006;6.020;2022-07-29T14:14:03;0.65;;;0.20;;
43523;SDS011;29120;52.006;6.020;2022-07-29T14:16:29;0.80;;;0.20;;
43523;SDS011;29120;52.006;6.020;2022-07-29T14:18:54;1.00;;;0.30;;
43523;SDS011;29120;52.006;6.020;2022-07-29T14:21:20;1.10;;;0.20;;
43523;SDS011;29120;52.006;6.020;2022-07-29T14:23:45;1.95;;;0.25;;
43523;SDS011;29120;52.006;6.020;2022-07-29T14:26:11;1.20;;;0.20;;
43523;SDS011;29120;52.006;6.020;2022-07-29T14:28:39;1.13;;;0.20;;
43523;SDS011;29120;52.006;6.020;2022-07-29T14:31:05;0.65;;;0.20;;
43523;SDS011;29120;52.006;6.020;2022-07-29T14:33:31;2.17;;;0.20;;
43523;SDS011;29120;52.006;6.020;2022-07-29T14:35:56;1.00;;;0.40;;
43523;SDS011;29120;52.006;6.020;2022-07-29T14:38:22;1.15;;;0.30;;
43523;SDS011;29120;52.006;6.020;2022-07-29T14:40:47;0.63;;;0.20;;
43523;SDS011;29120;52.006;6.020;2022-07-29T14:43:13;1.20;;;0.20;;
43523;SDS011;29120;52.006;6.020;2022-07-29T14:45:39;1.10;;;0.20;;
43523;SDS011;29120;52.006;6.020;2022-07-29T14:48:05;1.35;;;0.30;;
43523;SDS011;29120;52.006;6.020;2022-07-29T14:50:31;0.85;;;0.10;;
43523;SDS011;29120;52.006;6.020;2022-07-29T14:52:57;0.73;;;0.17;;
43523;SDS011;29120;52.006;6.020;2022-07-29T14:55:22;2.22;;;0.20;;
43523;SDS011;29120;52.006;6.020;2022-07-29T14:57:48;2.13;;;0.20;;
43523;SDS011;29120;52.006;6.020;2022-07-29T15:00:15;0.73;;;0.20;;
43523;SDS011;29120;52.006;6.020;2022-07-29T15:02:41;1.25;;;0.28;;
43523;SDS011;29120;52.006;6.020;2022-07-29T15:05:07;0.93;;;0.20;;
43523;SDS011;29120;52.006;6.020;2022-07-29T15:07:33;0.45;;;0.17;;
43523;SDS011;29120;52.006;6.020;2022-07-29T15:09:58;0.55;;;0.20;;
43523;SDS011;29120;52.006;6.020;2022-07-29T15:12:24;2.03;;;0.20;;
43523;SDS011;29120;52.006;6.020;2022-07-29T15:14:49;0.85;;;0.30;;
43523;SDS011;29120;52.006;6.020;2022-07-29T15:17:15;1.67;;;0.30;;
43523;SDS011;29120;52.006;6.020;2022-07-29T15:19:41;1.27;;;0.20;;
43523;SDS011;29120;52.006;6.020;2022-07-29T15:22:06;0.65;;;0.20;;